This is the latest recevied weather packets stored in our database for station/object KG4IFE-13. If no packets are shown the sender has not sent any weather packets the latest 10 day(s).
| Time | Temp. | Humidity | Pressure | Rain* | Wind** | Luminosity | Snow |
|---|---|---|---|---|---|---|---|
| 1777931865 | 23.89° C | 45% | 1012.7 hPa | - | - | - | - |
| 1777929459 | 23.33° C | 48% | 1012.6 hPa | - | - | - | - |
| 1777928855 | 23.33° C | 47% | 1012.6 hPa | - | - | - | - |
| 1777925846 | 23.89° C | 49% | 1013 hPa | - | - | - | - |
| 1777925564 | 23.89° C | 49% | 1013 hPa | - | - | - | - |
| 1777922835 | 22.78° C | 48% | 1013.7 hPa | - | - | - | - |
| 1777921633 | 22.22° C | 49% | 1013.8 hPa | - | - | - | - |
| 1777919826 | 21.67° C | 48% | 1014.4 hPa | - | - | - | - |
| 1777916816 | 24.44° C | 44% | 1014.7 hPa | - | - | - | - |
| 1777915611 | 24.44° C | 44% | 1014.7 hPa | - | - | - | - |
| 1777914708 | 24.44° C | 43% | 1014.8 hPa | - | - | - | - |
| 1777913805 | 23.89° C | 46% | 1015 hPa | - | - | - | - |
| 1777913504 | 23.89° C | 46% | 1015 hPa | - | - | - | - |
| 1777912601 | 22.22° C | 49% | 1015.2 hPa | - | - | - | - |
| 1777912001 | 21.67° C | 50% | 1015.4 hPa | - | - | - | - |
| 1777910798 | 21.67° C | 46% | 1015.8 hPa | - | - | - | - |
| 1777910494 | 21.67° C | 46% | 1015.8 hPa | - | - | - | - |
| 1777908688 | 20.56° C | 49% | 1016 hPa | - | - | - | - |
| 1777908387 | 20.56° C | 49% | 1016 hPa | - | - | - | - |
| 1777908086 | 20° C | 50% | 1015.9 hPa | - | - | - | - |
| 1777907183 | 19.44° C | 49% | 1016 hPa | - | - | - | - |
| 1777904777 | 16.67° C | 55% | 1016.5 hPa | - | - | - | - |
| 1777904173 | 16.67° C | 55% | 1016.6 hPa | - | - | - | - |
| 1777903571 | 15.56° C | 57% | 1016.6 hPa | - | - | - | - |
| 1777902066 | 14.44° C | 58% | 1016.5 hPa | - | - | - | - |
* Rain since midnight (hover to see other rain measurements)
** Current wind speed in m/s (hover to see current wind gust speed)